createdAt,value
2022-08-03T00:02:17.253Z,100459.69
2022-08-03T00:04:45.239Z,100446.41
2022-08-03T00:07:12.225Z,100473.44
2022-08-03T00:09:39.044Z,100449.72
2022-08-03T00:12:06.487Z,100474.41
2022-08-03T00:14:33.635Z,100478.56
2022-08-03T00:17:00.664Z,100474.00
2022-08-03T00:19:28.228Z,100430.19
2022-08-03T00:21:55.175Z,100460.72
2022-08-03T00:24:21.943Z,100409.97
2022-08-03T00:26:48.721Z,100472.22
2022-08-03T00:29:15.858Z,100463.31
2022-08-03T00:31:52.226Z,100478.66
2022-08-03T00:34:36.290Z,100479.88
2022-08-03T00:37:11.801Z,100432.22
2022-08-03T00:39:38.803Z,100444.88
2022-08-03T00:42:05.962Z,100450.03
2022-08-03T00:44:42.911Z,100433.47
2022-08-03T00:47:11.212Z,100423.03
2022-08-03T00:49:42.036Z,100481.50
2022-08-03T00:52:10.911Z,100433.13
2022-08-03T00:54:39.082Z,100393.22
2022-08-03T00:57:06.499Z,100473.28
2022-08-03T00:59:33.547Z,100477.88
2022-08-03T01:02:00.550Z,100476.88
2022-08-03T01:04:27.677Z,100473.97
2022-08-03T01:06:54.430Z,100479.44
2022-08-03T01:09:40.237Z,100480.94
2022-08-03T01:12:35.063Z,100482.66
2022-08-03T01:15:23.830Z,100492.03
2022-08-03T01:17:59.477Z,100493.75
2022-08-03T01:20:32.916Z,100489.78
2022-08-03T01:23:47.384Z,100489.38
2022-08-03T01:26:57.445Z,100493.34
2022-08-03T01:29:48.635Z,100488.97
2022-08-03T01:33:02.227Z,100482.94
2022-08-03T01:35:19.128Z,100427.72
2022-08-03T01:38:03.670Z,100486.94
2022-08-03T01:40:34.376Z,100473.06
2022-08-03T01:43:04.457Z,100431.13
2022-08-03T01:45:34.174Z,100485.09
2022-08-03T01:48:02.644Z,100444.41
2022-08-03T01:50:31.912Z,100452.53
2022-08-03T01:52:59.561Z,100478.91
2022-08-03T01:55:32.014Z,100469.78
2022-08-03T01:58:05.765Z,100493.06
2022-08-03T02:00:36.881Z,100475.41
2022-08-03T02:03:07.134Z,100498.28
2022-08-03T02:05:35.288Z,100464.84
2022-08-03T02:08:05.169Z,100427.66
2022-08-03T02:10:35.467Z,100479.41
2022-08-03T02:13:06.818Z,100453.19
2022-08-03T02:15:35.938Z,100495.63
2022-08-03T02:18:05.288Z,100416.88
2022-08-03T02:20:33.712Z,100486.66
2022-08-03T02:23:00.694Z,100422.47
2022-08-03T02:25:28.811Z,100459.00
2022-08-03T02:27:59.616Z,100481.06
2022-08-03T02:30:33.365Z,100450.06
2022-08-03T02:33:01.860Z,100477.31
2022-08-03T02:35:29.661Z,100477.31
2022-08-03T02:38:02.218Z,100423.28
2022-08-03T02:40:31.356Z,100466.72
2022-08-03T02:43:02.639Z,100453.00
2022-08-03T02:45:34.028Z,100408.13
2022-08-03T02:48:04.183Z,100469.59
2022-08-03T02:50:33.551Z,100440.31
2022-08-03T02:53:02.317Z,100476.91
2022-08-03T02:55:30.517Z,100437.78
2022-08-03T02:58:01.326Z,100451.97
2022-08-03T03:00:31.619Z,100476.69
2022-08-03T03:03:00.434Z,100466.44
2022-08-03T03:05:55.856Z,100477.63
2022-08-03T03:08:20.789Z,100487.00
2022-08-03T03:10:55.677Z,100493.81
2022-08-03T03:13:23.983Z,100499.88
2022-08-03T03:15:52.411Z,100487.56
2022-08-03T03:18:22.855Z,100505.09
2022-08-03T03:20:52.978Z,100511.53
2022-08-03T03:23:26.847Z,100500.75
2022-08-03T03:25:56.061Z,100483.03
2022-08-03T03:28:24.633Z,100515.09
2022-08-03T03:30:52.585Z,100485.78
2022-08-03T03:33:22.577Z,100452.91
2022-08-03T03:35:49.796Z,100517.19
2022-08-03T03:38:17.379Z,100519.06
2022-08-03T03:40:44.598Z,100530.47
2022-08-03T03:43:12.767Z,100500.56
2022-08-03T03:45:43.444Z,100504.50
2022-08-03T03:48:11.047Z,100486.16
2022-08-03T03:50:40.960Z,100499.09
2022-08-03T03:53:12.177Z,100524.25
2022-08-03T03:55:59.254Z,100531.13
2022-08-03T03:58:27.592Z,100526.72
2022-08-03T04:00:54.881Z,100527.97
2022-08-03T04:03:32.057Z,100529.44
2022-08-03T04:06:17.900Z,100531.50
2022-08-03T04:09:04.354Z,100525.84
2022-08-03T04:11:41.726Z,100538.97
2022-08-03T04:14:16.586Z,100539.16
2022-08-03T04:16:49.595Z,100534.59
2022-08-03T04:19:31.595Z,100499.63
2022-08-03T04:22:04.422Z,100540.69
2022-08-03T04:28:31.347Z,100530.94
2022-08-03T04:31:04.851Z,100507.88
2022-08-03T04:33:34.953Z,100513.50
2022-08-03T04:36:06.394Z,100485.84
2022-08-03T04:38:39.037Z,100487.72
2022-08-03T04:41:07.584Z,100510.13
2022-08-03T04:43:35.385Z,100529.94
2022-08-03T04:46:04.569Z,100493.09
2022-08-03T04:48:31.656Z,100477.94
2022-08-03T04:51:04.414Z,100506.22
2022-08-03T04:53:31.628Z,100467.31
2022-08-03T04:56:06.946Z,100568.19
2022-08-03T04:58:35.588Z,100563.41
2022-08-03T05:01:02.379Z,100554.66
2022-08-03T05:03:29.387Z,100516.38
2022-08-03T05:06:02.004Z,100572.75
2022-08-03T05:08:46.306Z,100581.31
2022-08-03T05:11:16.987Z,100583.97
2022-08-03T05:13:45.560Z,100582.94
2022-08-03T05:16:13.917Z,100570.88
2022-08-03T05:18:43.932Z,100594.97
2022-08-03T05:21:12.458Z,100577.47
2022-08-03T05:23:39.228Z,100572.06
2022-08-03T05:26:06.223Z,100594.53
2022-08-03T05:28:34.063Z,100525.03
2022-08-03T05:31:00.846Z,100564.91
2022-08-03T05:33:27.906Z,100599.34
2022-08-03T05:35:57.322Z,100602.41
2022-08-03T05:38:34.006Z,100579.47
2022-08-03T05:41:20.412Z,100608.44
2022-08-03T05:43:48.497Z,100602.56
2022-08-03T05:46:15.970Z,100596.91
2022-08-03T05:48:43.096Z,100589.59
2022-08-03T05:51:11.892Z,100590.63
2022-08-03T05:53:43.212Z,100608.69
2022-08-03T05:56:15.328Z,100584.16
2022-08-03T05:58:44.759Z,100599.97
2022-08-03T06:01:14.445Z,100601.88
2022-08-03T06:03:41.582Z,100621.53
2022-08-03T06:06:08.742Z,100620.03
2022-08-03T06:08:35.597Z,100623.25
2022-08-03T06:11:02.762Z,100595.41
2022-08-03T06:13:41.652Z,100473.53
2022-08-03T06:16:09.340Z,100466.63
2022-08-03T06:18:37.239Z,100623.28
2022-08-03T06:21:15.282Z,100542.38
2022-08-03T06:23:54.437Z,100490.56
2022-08-03T06:26:24.374Z,100616.53
2022-08-03T06:28:54.409Z,100462.84
2022-08-03T06:31:33.359Z,100625.91
2022-08-03T06:34:32.434Z,100628.94
2022-08-03T06:36:52.967Z,100629.59
2022-08-03T06:39:23.195Z,100613.72
2022-08-03T06:41:53.596Z,100593.03
2022-08-03T06:44:20.514Z,100625.94
2022-08-03T06:46:47.859Z,100632.34
2022-08-03T06:49:14.848Z,100612.78
2022-08-03T06:52:04.415Z,100585.22
2022-08-03T06:54:32.907Z,100601.38
2022-08-03T06:57:00.182Z,100579.47
2022-08-03T07:00:10.591Z,100586.94
2022-08-03T07:02:19.153Z,100608.00
2022-08-03T07:04:48.150Z,100610.13
2022-08-03T07:07:15.395Z,100614.94
2022-08-03T07:09:55.773Z,100616.72
2022-08-03T07:12:27.064Z,100610.06
2022-08-03T07:14:59.970Z,100555.22
2022-08-03T07:17:31.663Z,100616.81
2022-08-03T07:19:59.109Z,100552.53
2022-08-03T07:22:26.296Z,100548.84
2022-08-03T07:24:54.737Z,100615.09
2022-08-03T07:27:21.784Z,100618.34
2022-08-03T07:29:48.676Z,100528.94
2022-08-03T07:32:16.287Z,100597.72
2022-08-03T07:34:43.354Z,100600.91
2022-08-03T07:37:10.148Z,100615.88
2022-08-03T07:39:37.338Z,100550.25
2022-08-03T07:42:04.421Z,100614.38
2022-08-03T07:44:31.659Z,100612.84
2022-08-03T07:46:58.631Z,100569.41
2022-08-03T07:49:27.307Z,100610.63
2022-08-03T07:52:12.509Z,100583.22
2022-08-03T07:54:40.576Z,100582.44
2022-08-03T07:57:07.510Z,100619.19
2022-08-03T07:59:58.669Z,100577.81
2022-08-03T08:02:22.239Z,100611.41
2022-08-03T08:05:19.996Z,100619.28
2022-08-03T08:07:51.512Z,100621.06
2022-08-03T08:10:19.158Z,100615.13
2022-08-03T08:12:46.231Z,100603.88
2022-08-03T08:15:13.808Z,100623.78
2022-08-03T08:17:55.397Z,100584.91
2022-08-03T08:20:28.078Z,100611.84
2022-08-03T08:23:37.693Z,100620.66
2022-08-03T08:25:56.452Z,100562.28
2022-08-03T08:28:32.412Z,100615.72
2022-08-03T08:31:01.687Z,100621.63
2022-08-03T08:33:42.051Z,100632.09
2022-08-03T08:36:15.101Z,100626.16
2022-08-03T08:38:44.467Z,100624.81
2022-08-03T08:41:13.102Z,100623.72
2022-08-03T08:43:40.645Z,100584.13
2022-08-03T08:46:08.583Z,100632.06
2022-08-03T08:48:36.376Z,100615.97
2022-08-03T08:51:05.574Z,100616.59
2022-08-03T08:53:53.854Z,100613.66
2022-08-03T08:56:25.497Z,100598.97
2022-08-03T08:58:58.881Z,100624.06
2022-08-03T09:01:26.614Z,100611.47
2022-08-03T09:03:54.362Z,100595.88
2022-08-03T09:06:22.960Z,100602.56
2022-08-03T09:08:50.314Z,100587.06
2022-08-03T09:11:22.198Z,100607.25
2022-08-03T09:14:10.622Z,100605.63
2022-08-03T09:17:04.890Z,100614.09
2022-08-03T09:19:34.536Z,100582.59
2022-08-03T09:22:17.652Z,100607.56
2022-08-03T09:25:22.673Z,100605.41
2022-08-03T09:27:48.028Z,100602.16
2022-08-03T09:30:19.145Z,100597.25
2022-08-03T09:33:03.697Z,100594.81
2022-08-03T09:38:19.024Z,100566.53
2022-08-03T09:40:46.738Z,100583.56
2022-08-03T09:43:14.063Z,100579.47
2022-08-03T09:45:41.774Z,100584.41
2022-08-03T09:48:32.582Z,100551.19
2022-08-03T09:51:14.188Z,100563.25
2022-08-03T09:53:59.606Z,100576.50
2022-08-03T09:56:39.550Z,100584.75
2022-08-03T09:59:06.513Z,100583.09
2022-08-03T10:01:35.182Z,100567.38
2022-08-03T10:04:03.065Z,100545.13
2022-08-03T10:06:31.884Z,100561.66
2022-08-03T10:09:12.227Z,100566.91
2022-08-03T10:11:42.092Z,100555.91
2022-08-03T10:14:11.649Z,100541.34
2022-08-03T10:16:40.182Z,100550.97
2022-08-03T10:19:09.734Z,100556.44
2022-08-03T10:21:38.833Z,100533.88
2022-08-03T10:24:08.268Z,100541.06
2022-08-03T10:26:38.465Z,100550.94
2022-08-03T10:29:18.462Z,100545.13
2022-08-03T10:31:54.697Z,100546.53
2022-08-03T10:34:34.070Z,100534.44
2022-08-03T10:37:11.282Z,100539.59
2022-08-03T10:39:53.286Z,100534.84
2022-08-03T10:42:25.115Z,100529.56
2022-08-03T10:45:03.920Z,100527.09
2022-08-03T10:47:32.586Z,100523.78
2022-08-03T10:50:00.457Z,100523.72
2022-08-03T10:52:31.888Z,100509.69
2022-08-03T10:55:18.130Z,100520.53
2022-08-03T10:57:58.864Z,100520.22
2022-08-03T11:00:28.415Z,100512.78
2022-08-03T11:03:14.697Z,100490.25
2022-08-03T11:05:46.454Z,100478.16
2022-08-03T11:08:34.963Z,100481.63
2022-08-03T11:11:23.581Z,100496.06
2022-08-03T11:14:05.867Z,100499.84
2022-08-03T11:16:54.207Z,100488.94
2022-08-03T11:19:28.030Z,100492.75
2022-08-03T11:21:57.147Z,100494.94
2022-08-03T11:24:51.105Z,100497.94
2022-08-03T11:27:20.540Z,100482.47
2022-08-03T11:30:09.295Z,100487.84
2022-08-03T11:32:46.572Z,100490.22
2022-08-03T11:35:18.452Z,100481.56
2022-08-03T11:38:03.377Z,100476.19
2022-08-03T11:40:45.085Z,100476.72
2022-08-03T11:43:31.971Z,100477.56
2022-08-03T11:46:28.521Z,100483.31
2022-08-03T11:49:09.928Z,100462.00
2022-08-03T11:51:39.874Z,100473.22
2022-08-03T11:54:07.414Z,100459.94
2022-08-03T11:56:48.325Z,100453.69
2022-08-03T11:59:21.696Z,100457.00
2022-08-03T12:01:50.590Z,100445.28
2022-08-03T12:04:18.160Z,100454.78
2022-08-03T12:07:03.616Z,100408.03
2022-08-03T12:09:30.637Z,100442.00
2022-08-03T12:11:59.747Z,100430.44
2022-08-03T12:14:50.467Z,100431.44
2022-08-03T12:17:17.761Z,100433.78
2022-08-03T12:19:45.310Z,100439.59
2022-08-03T12:22:12.140Z,100443.41
2022-08-03T12:24:42.795Z,100403.94
2022-08-03T12:27:09.738Z,100428.09
2022-08-03T12:29:36.938Z,100445.34
2022-08-03T12:32:04.085Z,100446.81
2022-08-03T12:34:50.103Z,100384.88
2022-08-03T12:37:23.825Z,100378.03
2022-08-03T12:40:10.177Z,100438.78
2022-08-03T12:42:39.798Z,100354.38
2022-08-03T12:45:20.521Z,100420.78
2022-08-03T12:47:59.275Z,100365.19
2022-08-03T12:50:26.207Z,100425.00
2022-08-03T12:52:53.411Z,100367.16
2022-08-03T12:55:21.864Z,100366.03
2022-08-03T12:57:49.564Z,100383.97
2022-08-03T13:00:28.889Z,100430.88
2022-08-03T13:05:54.482Z,100402.25
2022-08-03T13:08:23.614Z,100389.03
2022-08-03T13:10:50.718Z,100371.41
2022-08-03T13:13:20.729Z,100287.28
2022-08-03T13:15:48.297Z,100311.91
2022-08-03T13:18:17.380Z,100341.47
2022-08-03T13:20:44.690Z,100341.88
2022-08-03T13:23:15.400Z,100358.97
2022-08-03T13:25:55.751Z,100374.47
2022-08-03T13:28:23.706Z,100361.97
2022-08-03T13:30:50.701Z,100403.28
2022-08-03T13:33:20.483Z,100371.75
2022-08-03T13:35:47.665Z,100395.31
2022-08-03T13:38:17.386Z,100336.03
2022-08-03T13:40:46.028Z,100361.97
2022-08-03T13:43:13.200Z,100384.38
2022-08-03T13:45:40.277Z,100387.53
2022-08-03T13:48:07.172Z,100365.75
2022-08-03T13:50:33.978Z,100343.31
2022-08-03T13:53:01.145Z,100362.59
2022-08-03T13:55:27.954Z,100349.19
2022-08-03T13:58:12.084Z,100366.03
2022-08-03T14:00:42.043Z,100369.22
2022-08-03T14:03:14.255Z,100358.13
2022-08-03T14:05:43.465Z,100372.81
2022-08-03T14:08:11.437Z,100370.59
2022-08-03T14:10:41.122Z,100356.41
2022-08-03T14:13:08.560Z,100359.03
2022-08-03T14:15:37.598Z,100352.50
2022-08-03T14:18:12.742Z,100361.81
2022-08-03T14:20:49.080Z,100364.34
2022-08-03T14:23:19.054Z,100348.38
2022-08-03T14:25:51.975Z,100352.19
2022-08-03T14:28:24.014Z,100323.41
2022-08-03T14:30:52.459Z,100354.00
2022-08-03T14:33:20.218Z,100339.63
2022-08-03T14:35:48.115Z,100323.78
2022-08-03T14:38:15.519Z,100340.84
2022-08-03T14:40:42.802Z,100331.41
2022-08-03T14:43:09.731Z,100341.75
2022-08-03T14:45:36.710Z,100330.34
2022-08-03T14:50:27.857Z,100292.63
2022-08-03T14:50:52.943Z,100291.91
2022-08-03T14:53:20.206Z,100347.28
2022-08-03T14:55:50.969Z,100298.72
2022-08-03T14:58:21.479Z,100326.13
2022-08-03T15:00:50.328Z,100302.44
2022-08-03T15:03:24.781Z,100284.34
2022-08-03T15:05:57.218Z,100247.44
2022-08-03T15:08:25.723Z,100338.63
2022-08-03T15:10:55.704Z,100340.59
2022-08-03T15:13:23.454Z,100329.47
2022-08-03T15:15:51.788Z,100327.09
2022-08-03T15:18:20.191Z,100342.97
2022-08-03T15:20:49.567Z,100316.63
2022-08-03T15:23:18.288Z,100341.53
2022-08-03T15:26:03.873Z,100337.97
2022-08-03T15:28:34.000Z,100303.16
2022-08-03T15:31:01.799Z,100329.66
2022-08-03T15:33:29.366Z,100293.38
2022-08-03T15:35:56.995Z,100312.25
2022-08-03T15:38:26.032Z,100298.28
2022-08-03T15:40:57.146Z,100312.25
2022-08-03T15:43:24.582Z,100254.00
2022-08-03T15:46:12.694Z,100318.81
2022-08-03T15:48:39.171Z,100307.84
2022-08-03T15:51:06.754Z,100254.88
2022-08-03T15:53:33.849Z,100302.13
2022-08-03T15:56:04.229Z,100273.09
2022-08-03T15:59:04.203Z,100298.28
2022-08-03T16:01:22.104Z,100303.28
2022-08-03T16:03:49.095Z,100269.41
2022-08-03T16:06:17.864Z,100247.56
2022-08-03T16:08:56.975Z,100280.69
2022-08-03T16:11:23.773Z,100290.97
2022-08-03T16:14:12.837Z,100257.63
2022-08-03T16:16:40.918Z,100242.69
2022-08-03T16:19:07.849Z,100315.75
2022-08-03T16:21:47.291Z,100296.41
2022-08-03T16:24:17.336Z,100285.72
2022-08-03T16:26:46.781Z,100304.25
2022-08-03T16:29:23.313Z,100272.81
2022-08-03T16:31:52.451Z,100311.44
2022-08-03T16:34:20.382Z,100290.91
2022-08-03T16:36:47.179Z,100255.13
2022-08-03T16:39:18.357Z,100254.00
2022-08-03T16:41:54.525Z,100266.31
2022-08-03T16:44:30.845Z,100282.75
2022-08-03T16:46:59.158Z,100232.63
2022-08-03T16:49:54.780Z,100280.25
2022-08-03T16:52:13.385Z,100273.13
2022-08-03T16:54:40.868Z,100269.31
2022-08-03T16:57:08.586Z,100315.06
2022-08-03T16:59:37.072Z,100262.31
2022-08-03T17:02:09.694Z,100314.03
2022-08-03T17:04:40.300Z,100301.97
2022-08-03T17:07:08.915Z,100314.50
2022-08-03T17:09:38.693Z,100277.31
2022-08-03T17:12:07.531Z,100312.59
2022-08-03T17:14:38.850Z,100297.63
2022-08-03T17:17:16.425Z,100327.78
2022-08-03T17:19:47.255Z,100319.81
2022-08-03T17:22:24.431Z,100323.47
2022-08-03T17:24:53.505Z,100331.19
2022-08-03T17:28:48.048Z,100294.00
2022-08-03T17:30:15.926Z,100289.16
2022-08-03T17:32:56.687Z,100266.44
2022-08-03T17:35:36.424Z,100300.78
2022-08-03T17:38:10.402Z,100341.66
2022-08-03T17:44:13.420Z,100320.28
2022-08-03T17:46:19.574Z,100331.81
2022-08-03T17:48:46.575Z,100286.06
2022-08-03T17:51:31.599Z,100347.75
2022-08-03T17:54:02.044Z,100352.75
2022-08-03T17:56:46.259Z,100351.66
2022-08-03T17:59:52.198Z,100356.28
2022-08-03T18:02:47.436Z,100348.34
2022-08-03T18:05:18.204Z,100360.13
2022-08-03T18:08:01.696Z,100361.50
2022-08-03T18:10:35.670Z,100370.53
2022-08-03T18:13:10.792Z,100354.06
2022-08-03T18:15:47.026Z,100365.00
2022-08-03T18:18:32.466Z,100341.38
2022-08-03T18:21:06.753Z,100366.56
2022-08-03T18:23:38.177Z,100374.53
2022-08-03T18:26:12.396Z,100381.56
2022-08-03T18:28:40.679Z,100391.44
2022-08-03T18:31:11.626Z,100387.28
2022-08-03T18:34:16.593Z,100392.16
2022-08-03T18:36:30.479Z,100400.38
2022-08-03T18:39:01.806Z,100378.84
2022-08-03T18:41:33.241Z,100400.81
2022-08-03T18:44:07.922Z,100385.31
2022-08-03T18:47:07.250Z,100408.56
2022-08-03T18:49:55.627Z,100413.72
2022-08-03T18:52:52.831Z,100395.84
2022-08-03T18:55:33.764Z,100387.88
2022-08-03T18:58:15.738Z,100413.34
2022-08-03T19:01:56.443Z,100417.13
2022-08-03T19:04:02.843Z,100415.97
2022-08-03T19:06:33.077Z,100380.16
2022-08-03T19:09:13.043Z,100396.59
2022-08-03T19:12:13.954Z,100274.69
2022-08-03T19:15:12.389Z,100367.03
2022-08-03T19:17:50.298Z,100427.50
2022-08-03T19:20:30.793Z,100388.94
2022-08-03T19:22:59.791Z,100432.03
2022-08-03T19:25:34.389Z,100434.72
2022-08-03T19:28:03.909Z,100392.06
2022-08-03T19:30:35.787Z,100433.00
2022-08-03T19:33:14.160Z,100438.44
2022-08-03T19:38:31.097Z,100371.72
2022-08-03T19:41:03.195Z,100434.69
2022-08-03T19:43:53.188Z,100414.09
2022-08-03T19:46:30.084Z,100425.34
2022-08-03T19:49:10.627Z,100436.03
2022-08-03T19:52:02.538Z,100449.16
2022-08-03T19:54:49.353Z,100413.28
2022-08-03T19:57:25.081Z,100448.47
2022-08-03T19:59:54.035Z,100403.78
2022-08-03T20:02:26.399Z,100450.56
2022-08-03T20:04:59.792Z,100424.66
2022-08-03T20:07:29.042Z,100428.75
2022-08-03T20:09:59.658Z,100440.81
2022-08-03T20:12:29.507Z,100431.66
2022-08-03T20:14:57.592Z,100444.53
2022-08-03T20:17:56.328Z,100453.50
2022-08-03T20:20:13.634Z,100451.50
2022-08-03T20:22:43.038Z,100452.53
2022-08-03T20:25:13.192Z,100447.81
2022-08-03T20:28:07.739Z,100447.81
2022-08-03T20:30:38.994Z,100452.69
2022-08-03T20:33:09.940Z,100427.41
2022-08-03T20:35:36.800Z,100447.72
2022-08-03T20:38:03.657Z,100412.19
2022-08-03T20:40:30.584Z,100450.47
2022-08-03T20:42:57.461Z,100452.03
2022-08-03T20:45:59.918Z,100410.13
2022-08-03T20:48:11.435Z,100446.75
2022-08-03T20:50:43.568Z,100450.28
2022-08-03T20:53:12.095Z,100396.41
2022-08-03T20:55:47.819Z,100430.63
2022-08-03T20:58:26.795Z,100438.25
2022-08-03T21:00:55.761Z,100426.69
2022-08-03T21:03:22.516Z,100442.09
2022-08-03T21:05:53.682Z,100429.47
2022-08-03T21:08:22.625Z,100434.03
2022-08-03T21:10:52.566Z,100432.47
2022-08-03T21:12:59.279Z,100275.50
2022-08-03T21:13:10.907Z,100428.25
2022-08-03T21:13:37.950Z,100444.28
2022-08-03T21:16:14.765Z,100446.66
2022-08-03T21:18:49.016Z,100435.59
2022-08-03T21:21:18.320Z,100446.84
2022-08-03T21:23:49.659Z,100412.94
2022-08-03T21:26:26.662Z,100442.97
2022-08-03T21:28:56.784Z,100444.81
2022-08-03T21:31:26.546Z,100447.53
2022-08-03T21:33:59.592Z,100440.22
2022-08-03T21:36:28.526Z,100451.25
2022-08-03T21:38:57.534Z,100449.28
2022-08-03T21:41:26.869Z,100434.91
2022-08-03T21:43:53.755Z,100458.88
2022-08-03T21:46:22.342Z,100454.75
2022-08-03T21:48:55.485Z,100456.66
2022-08-03T21:51:26.045Z,100466.41
2022-08-03T21:54:02.612Z,100463.09
2022-08-03T21:56:36.795Z,100471.50
2022-08-03T21:59:09.642Z,100429.38
2022-08-03T22:01:39.881Z,100423.81
2022-08-03T22:04:07.489Z,100445.47
2022-08-03T22:06:42.319Z,100429.31
2022-08-03T22:09:09.553Z,100481.84
2022-08-03T22:11:39.745Z,100479.41
2022-08-03T22:14:06.781Z,100477.53
2022-08-03T22:16:34.256Z,100467.50
2022-08-03T22:19:01.024Z,100477.69
2022-08-03T22:21:36.027Z,100477.25
2022-08-03T22:24:05.630Z,100474.13
2022-08-03T22:26:35.849Z,100478.03
2022-08-03T22:29:07.605Z,100470.59
2022-08-03T22:31:58.381Z,100473.31
2022-08-03T22:34:26.885Z,100439.22
2022-08-03T22:37:00.001Z,100416.78
2022-08-03T22:39:29.064Z,100474.97
2022-08-03T22:41:59.627Z,100474.97
2022-08-03T22:44:27.349Z,100459.72
2022-08-03T22:46:55.505Z,100479.25
2022-08-03T22:49:22.469Z,100483.72
2022-08-03T22:51:51.774Z,100453.13
2022-08-03T22:54:18.875Z,100467.91
2022-08-03T22:56:50.426Z,100464.50
2022-08-03T22:59:40.048Z,100472.88
2022-08-03T23:02:20.355Z,100439.47
2022-08-03T23:04:55.046Z,100450.94
2022-08-03T23:07:30.823Z,100479.00
2022-08-03T23:09:58.857Z,100486.56
2022-08-03T23:12:29.633Z,100473.53
2022-08-03T23:15:00.245Z,100490.13
2022-08-03T23:17:31.024Z,100480.50
2022-08-03T23:20:06.660Z,100461.44
2022-08-03T23:22:34.965Z,100492.06
2022-08-03T23:25:04.798Z,100465.09
2022-08-03T23:27:33.160Z,100463.09
2022-08-03T23:30:01.637Z,100487.09
2022-08-03T23:32:30.048Z,100496.28
2022-08-03T23:35:17.575Z,100488.34
2022-08-03T23:38:04.537Z,100485.19
2022-08-03T23:40:33.929Z,100465.47
2022-08-03T23:43:02.138Z,100475.94
2022-08-03T23:45:31.288Z,100474.63
2022-08-03T23:47:58.078Z,100463.38
2022-08-03T23:50:28.698Z,100479.13
2022-08-03T23:53:05.902Z,100480.88
2022-08-03T23:56:03.919Z,100444.38
2022-08-03T23:58:44.809Z,100476.50
